EDW266N LSZH-LPMA
Flight info
| Callsign | EDW266N |
|---|---|
| Flight time | 3h 37m |
| Altitude | 35000 |
| Route | VEBIT T50 ROTOS Z669 ULMES DCT VADAR DCT NINTU DCT MEBAK DCT REPSI DCT LERGA DCT MINSO DCT NARAK DCT AGN DCT PIPOR DCT PPN DCT MIRPO DCT DGO DCT NEA DCT ARDID DCT FTM DCT NASAS DCT LIDRO |
| Aircraft | A320/M-SDE2E3FGHIJ1RWXY/LB1 |
Departure
| Time | 2026-05-04 05:28 |
|---|---|
| Airport | Zürich Airport (LSZH) |
Arrival
| Time | 2026-05-04 09:05 |
|---|---|
| Airport | Cristiano Ronaldo International Airport (LPMA) |
| Time | Latitude | Longitude | Altitude | Speed | Heading |
|---|---|---|---|---|---|
| 2026-05-04 04:41 | 47.45353 | 8.55647 | 1411 ft | 0 kts | 6° |
| 2026-05-04 05:16 | 47.45351 | 8.55647 | 1406 ft | 2 kts | 6° |
| 2026-05-04 05:16 | 47.45325 | 8.55645 | 1409 ft | 4 kts | 359° |
| 2026-05-04 05:17 | 47.45299 | 8.55648 | 1413 ft | 4 kts | 346° |
| 2026-05-04 05:17 | 47.45275 | 8.55663 | 1416 ft | 4 kts | 311° |
| 2026-05-04 05:17 | 47.45268 | 8.55680 | 1410 ft | 1 kts | 276° |
| 2026-05-04 05:20 | 47.45268 | 8.55678 | 1412 ft | 1 kts | 276° |
| 2026-05-04 05:20 | 47.45271 | 8.55640 | 1413 ft | 8 kts | 276° |
| 2026-05-04 05:21 | 47.45286 | 8.55576 | 1407 ft | 10 kts | 310° |
| 2026-05-04 05:21 | 47.45368 | 8.55514 | 1406 ft | 14 kts | 335° |
| 2026-05-04 05:21 | 47.45461 | 8.55451 | 1410 ft | 12 kts | 335° |
| 2026-05-04 05:21 | 47.45517 | 8.55448 | 1408 ft | 7 kts | 41° |
| 2026-05-04 05:22 | 47.45523 | 8.55537 | 1408 ft | 12 kts | 96° |
| 2026-05-04 05:22 | 47.45513 | 8.55680 | 1407 ft | 15 kts | 96° |
| 2026-05-04 05:22 | 47.45500 | 8.55857 | 1410 ft | 18 kts | 96° |
| 2026-05-04 05:22 | 47.45487 | 8.56036 | 1411 ft | 17 kts | 96° |
| 2026-05-04 05:23 | 47.45477 | 8.56187 | 1407 ft | 11 kts | 91° |
| 2026-05-04 05:23 | 47.45503 | 8.56261 | 1413 ft | 6 kts | 51° |
| 2026-05-04 05:23 | 47.45536 | 8.56320 | 1415 ft | 9 kts | 50° |
| 2026-05-04 05:23 | 47.45574 | 8.56387 | 1419 ft | 12 kts | 50° |
| 2026-05-04 05:24 | 47.45591 | 8.56523 | 1417 ft | 15 kts | 95° |
| 2026-05-04 05:24 | 47.45582 | 8.56660 | 1418 ft | 12 kts | 96° |
| 2026-05-04 05:24 | 47.45574 | 8.56763 | 1421 ft | 8 kts | 96° |
| 2026-05-04 05:24 | 47.45568 | 8.56849 | 1420 ft | 9 kts | 96° |
| 2026-05-04 05:25 | 47.45561 | 8.56961 | 1420 ft | 9 kts | 88° |
| 2026-05-04 05:25 | 47.45600 | 8.57018 | 1424 ft | 8 kts | 11° |
| 2026-05-04 05:25 | 47.45644 | 8.57026 | 1425 ft | 5 kts | 6° |
| 2026-05-04 05:25 | 47.45664 | 8.57012 | 1425 ft | 2 kts | 294° |
| 2026-05-04 05:26 | 47.45665 | 8.56998 | 1424 ft | 0 kts | 277° |
| 2026-05-04 05:26 | 47.45674 | 8.56866 | 1422 ft | 46 kts | 276° |
| 2026-05-04 05:26 | 47.45732 | 8.56021 | 1411 ft | 116 kts | 276° |
| 2026-05-04 05:26 | 47.45797 | 8.55107 | 1402 ft | 153 kts | 276° |
| 2026-05-04 05:27 | 47.45914 | 8.53461 | 1860 ft | 159 kts | 277° |
| 2026-05-04 05:28 | 47.43285 | 8.43404 | 4799 ft | 202 kts | 236° |
| 2026-05-04 05:29 | 47.42434 | 8.41611 | 4950 ft | 224 kts | 235° |
| 2026-05-04 05:29 | 47.41471 | 8.39626 | 5067 ft | 253 kts | 235° |
| 2026-05-04 05:29 | 47.40478 | 8.37329 | 5400 ft | 275 kts | 242° |
| 2026-05-04 05:29 | 47.39554 | 8.34815 | 6093 ft | 281 kts | 242° |
| 2026-05-04 05:31 | 47.32758 | 8.16437 | 10650 ft | 327 kts | 238° |
| 2026-05-04 05:31 | 47.31620 | 8.13406 | 10781 ft | 349 kts | 239° |
| 2026-05-04 05:32 | 47.30429 | 8.10216 | 11156 ft | 359 kts | 238° |
| 2026-05-04 05:32 | 47.29083 | 8.07092 | 11761 ft | 362 kts | 234° |
| 2026-05-04 05:32 | 47.27665 | 8.04015 | 12442 ft | 364 kts | 233° |
| 2026-05-04 05:33 | 47.24749 | 7.97897 | 13821 ft | 366 kts | 232° |
| 2026-05-04 05:33 | 47.23277 | 7.94827 | 14411 ft | 368 kts | 232° |
| 2026-05-04 05:33 | 47.21801 | 7.91736 | 14975 ft | 370 kts | 233° |
| 2026-05-04 05:33 | 47.20322 | 7.88618 | 15534 ft | 373 kts | 233° |
| 2026-05-04 05:34 | 47.18837 | 7.85479 | 16102 ft | 375 kts | 233° |
| 2026-05-04 05:34 | 47.17344 | 7.82319 | 16644 ft | 378 kts | 233° |
| 2026-05-04 05:34 | 47.15843 | 7.79143 | 17207 ft | 380 kts | 233° |
| 2026-05-04 05:34 | 47.14329 | 7.75940 | 17748 ft | 383 kts | 233° |
| 2026-05-04 05:35 | 47.12803 | 7.72717 | 18293 ft | 386 kts | 233° |
| 2026-05-04 05:35 | 47.11285 | 7.69523 | 18774 ft | 387 kts | 233° |
| 2026-05-04 05:35 | 47.09737 | 7.66273 | 19241 ft | 389 kts | 233° |
| 2026-05-04 05:35 | 47.08178 | 7.63006 | 19681 ft | 392 kts | 233° |
| 2026-05-04 05:36 | 47.06607 | 7.59719 | 20113 ft | 395 kts | 233° |
| 2026-05-04 05:36 | 47.05027 | 7.56410 | 20530 ft | 397 kts | 233° |
| 2026-05-04 05:36 | 47.03435 | 7.53082 | 20935 ft | 400 kts | 233° |
| 2026-05-04 05:36 | 47.01831 | 7.49735 | 21335 ft | 403 kts | 233° |
| 2026-05-04 05:37 | 47.00216 | 7.46368 | 21719 ft | 405 kts | 233° |
| 2026-05-04 05:37 | 46.98590 | 7.42981 | 22098 ft | 408 kts | 234° |
| 2026-05-04 05:37 | 46.96954 | 7.39575 | 22474 ft | 410 kts | 234° |
| 2026-05-04 05:38 | 46.93657 | 7.32723 | 23241 ft | 414 kts | 233° |
| 2026-05-04 05:38 | 46.91995 | 7.29276 | 23605 ft | 415 kts | 233° |
| 2026-05-04 05:38 | 46.90323 | 7.25817 | 23910 ft | 417 kts | 233° |
| 2026-05-04 05:38 | 46.88647 | 7.22347 | 24226 ft | 418 kts | 233° |
| 2026-05-04 05:39 | 46.86966 | 7.18867 | 24528 ft | 420 kts | 234° |
| 2026-05-04 05:39 | 46.83582 | 7.11895 | 25136 ft | 422 kts | 233° |
| 2026-05-04 05:39 | 46.81882 | 7.08405 | 25434 ft | 422 kts | 233° |
| 2026-05-04 05:40 | 46.78467 | 7.01397 | 25991 ft | 425 kts | 233° |
| 2026-05-04 05:40 | 46.76751 | 6.97883 | 26258 ft | 426 kts | 233° |
| 2026-05-04 05:40 | 46.75030 | 6.94362 | 26518 ft | 427 kts | 233° |
| 2026-05-04 05:41 | 46.73306 | 6.90838 | 26798 ft | 427 kts | 233° |
| 2026-05-04 05:41 | 46.71575 | 6.87306 | 27013 ft | 429 kts | 233° |
| 2026-05-04 05:41 | 46.69837 | 6.83766 | 27251 ft | 430 kts | 233° |
| 2026-05-04 05:41 | 46.68095 | 6.80218 | 27476 ft | 431 kts | 233° |
| 2026-05-04 05:42 | 46.66349 | 6.76665 | 27701 ft | 432 kts | 233° |
| 2026-05-04 05:42 | 46.64638 | 6.73068 | 27936 ft | 432 kts | 235° |
| 2026-05-04 05:42 | 46.63031 | 6.69380 | 28238 ft | 431 kts | 237° |
| 2026-05-04 05:42 | 46.61498 | 6.65642 | 28550 ft | 430 kts | 238° |
| 2026-05-04 05:43 | 46.59998 | 6.61890 | 28860 ft | 428 kts | 238° |
| 2026-05-04 05:43 | 46.58507 | 6.58160 | 29186 ft | 427 kts | 238° |
| 2026-05-04 05:43 | 46.57002 | 6.54447 | 29481 ft | 426 kts | 238° |
| 2026-05-04 05:45 | 46.46313 | 6.29059 | 31432 ft | 416 kts | 237° |
| 2026-05-04 05:45 | 46.44804 | 6.25485 | 31699 ft | 415 kts | 237° |
| 2026-05-04 05:47 | 46.34335 | 6.00851 | 33556 ft | 406 kts | 236° |
| 2026-05-04 05:47 | 46.32848 | 5.97371 | 33749 ft | 407 kts | 236° |
| 2026-05-04 05:47 | 46.31380 | 5.93941 | 33980 ft | 406 kts | 236° |
| 2026-05-04 05:48 | 46.29892 | 5.90473 | 34187 ft | 406 kts | 236° |
| 2026-05-04 05:48 | 46.28407 | 5.87006 | 34372 ft | 405 kts | 236° |
| 2026-05-04 05:48 | 46.26920 | 5.83544 | 34550 ft | 405 kts | 236° |
| 2026-05-04 05:48 | 46.25431 | 5.80084 | 34729 ft | 405 kts | 236° |
| 2026-05-04 05:49 | 46.23942 | 5.76624 | 34899 ft | 405 kts | 236° |
| 2026-05-04 05:49 | 46.22453 | 5.73163 | 35024 ft | 407 kts | 236° |
| 2026-05-04 05:49 | 46.19450 | 5.66213 | 35043 ft | 408 kts | 236° |
| 2026-05-04 05:51 | 46.06872 | 5.38888 | 35025 ft | 409 kts | 233° |
| 2026-05-04 05:52 | 46.03603 | 5.32165 | 35029 ft | 409 kts | 233° |
| 2026-05-04 05:52 | 46.00356 | 5.25434 | 35023 ft | 409 kts | 233° |
| 2026-05-04 05:54 | 45.87338 | 4.98578 | 35029 ft | 410 kts | 233° |
| 2026-05-04 05:55 | 45.84058 | 4.91872 | 35002 ft | 412 kts | 233° |
| 2026-05-04 05:55 | 45.80759 | 4.85148 | 35001 ft | 414 kts | 233° |
| 2026-05-04 05:56 | 45.77445 | 4.78393 | 35005 ft | 415 kts | 233° |
| 2026-05-04 05:56 | 45.74121 | 4.71628 | 35008 ft | 416 kts | 233° |
| 2026-05-04 05:57 | 45.70787 | 4.64866 | 35014 ft | 416 kts | 233° |
| 2026-05-04 05:57 | 45.67449 | 4.58103 | 35004 ft | 416 kts | 233° |
| 2026-05-04 05:58 | 45.64107 | 4.51348 | 35001 ft | 416 kts | 233° |
| 2026-05-04 05:58 | 45.60760 | 4.44604 | 34999 ft | 416 kts | 233° |
| 2026-05-04 05:59 | 45.57413 | 4.37878 | 34997 ft | 416 kts | 232° |
| 2026-05-04 05:59 | 45.54058 | 4.31154 | 34997 ft | 416 kts | 232° |
| 2026-05-04 06:00 | 45.50701 | 4.24438 | 35011 ft | 416 kts | 232° |
| 2026-05-04 06:00 | 45.47340 | 4.17735 | 35002 ft | 416 kts | 232° |
| 2026-05-04 06:01 | 45.43972 | 4.11044 | 35004 ft | 416 kts | 232° |
| 2026-05-04 06:03 | 45.30503 | 3.84384 | 35009 ft | 415 kts | 232° |
| 2026-05-04 06:05 | 45.15474 | 3.54212 | 35004 ft | 416 kts | 233° |
| 2026-05-04 06:06 | 45.12150 | 3.47493 | 34982 ft | 416 kts | 233° |
| 2026-05-04 06:06 | 45.08822 | 3.40790 | 34992 ft | 417 kts | 233° |
| 2026-05-04 06:07 | 45.05482 | 3.34083 | 34990 ft | 417 kts | 233° |
| 2026-05-04 06:07 | 45.02141 | 3.27373 | 34994 ft | 417 kts | 233° |
| 2026-05-04 06:08 | 44.98791 | 3.20670 | 34987 ft | 417 kts | 233° |
| 2026-05-04 06:08 | 44.95438 | 3.13973 | 34994 ft | 418 kts | 233° |
| 2026-05-04 06:09 | 44.92100 | 3.07328 | 34983 ft | 418 kts | 233° |
| 2026-05-04 06:11 | 44.78966 | 2.80297 | 34989 ft | 419 kts | 236° |
| 2026-05-04 06:13 | 44.66313 | 2.52834 | 34992 ft | 418 kts | 234° |
| 2026-05-04 06:14 | 44.55686 | 2.30095 | 34988 ft | 417 kts | 234° |
| 2026-05-04 06:15 | 44.52490 | 2.23304 | 35009 ft | 417 kts | 234° |
| 2026-05-04 06:15 | 44.49296 | 2.16528 | 35001 ft | 416 kts | 234° |
| 2026-05-04 06:16 | 44.46106 | 2.09770 | 34987 ft | 416 kts | 234° |
| 2026-05-04 06:16 | 44.42931 | 2.03062 | 34977 ft | 416 kts | 234° |
| 2026-05-04 06:17 | 44.39733 | 1.96318 | 34957 ft | 416 kts | 234° |
| 2026-05-04 06:17 | 44.36541 | 1.89577 | 34983 ft | 416 kts | 234° |
| 2026-05-04 06:18 | 44.33340 | 1.82853 | 34969 ft | 415 kts | 234° |
| 2026-05-04 06:20 | 44.20759 | 1.55806 | 34941 ft | 415 kts | 235° |
| 2026-05-04 06:21 | 44.12941 | 1.38883 | 34951 ft | 416 kts | 235° |
| 2026-05-04 06:22 | 44.09797 | 1.32129 | 34947 ft | 416 kts | 235° |
| 2026-05-04 06:25 | 43.87709 | 0.84953 | 34959 ft | 417 kts | 236° |
| 2026-05-04 06:26 | 43.84728 | 0.78052 | 34966 ft | 418 kts | 237° |
| 2026-05-04 06:26 | 43.81818 | 0.71092 | 34984 ft | 417 kts | 238° |
| 2026-05-04 06:27 | 43.74413 | 0.53893 | 34974 ft | 416 kts | 237° |
| 2026-05-04 06:28 | 43.71425 | 0.47052 | 34980 ft | 416 kts | 237° |
| 2026-05-04 06:28 | 43.68466 | 0.40256 | 34979 ft | 415 kts | 237° |
| 2026-05-04 06:29 | 43.65489 | 0.33421 | 35008 ft | 415 kts | 237° |
| 2026-05-04 06:29 | 43.62510 | 0.26606 | 34985 ft | 414 kts | 237° |
| 2026-05-04 06:30 | 43.59535 | 0.19813 | 34980 ft | 413 kts | 237° |
| 2026-05-04 06:30 | 43.56562 | 0.13043 | 34984 ft | 413 kts | 237° |
| 2026-05-04 06:31 | 43.53582 | 0.06283 | 34984 ft | 412 kts | 237° |
| 2026-05-04 06:31 | 43.50599 | -0.00464 | 35003 ft | 412 kts | 237° |
| 2026-05-04 06:33 | 43.38649 | -0.27396 | 34982 ft | 412 kts | 237° |
| 2026-05-04 06:34 | 43.35657 | -0.34093 | 34989 ft | 411 kts | 237° |
| 2026-05-04 06:34 | 43.32663 | -0.40790 | 34989 ft | 411 kts | 237° |
| 2026-05-04 06:36 | 43.20665 | -0.67447 | 34975 ft | 410 kts | 237° |
| 2026-05-04 06:37 | 43.17660 | -0.74096 | 34979 ft | 410 kts | 237° |
| 2026-05-04 06:37 | 43.14654 | -0.80726 | 34998 ft | 410 kts | 237° |
| 2026-05-04 06:38 | 43.11634 | -0.87358 | 34994 ft | 410 kts | 237° |
| 2026-05-04 06:40 | 43.02098 | -1.15823 | 35014 ft | 412 kts | 244° |
| 2026-05-04 06:40 | 42.99746 | -1.22960 | 34992 ft | 411 kts | 244° |
| 2026-05-04 06:41 | 42.97395 | -1.30077 | 34991 ft | 411 kts | 244° |
| 2026-05-04 06:41 | 42.95051 | -1.37175 | 34990 ft | 410 kts | 244° |
| 2026-05-04 06:42 | 42.92703 | -1.44271 | 34995 ft | 410 kts | 244° |
| 2026-05-04 06:44 | 42.83256 | -1.72598 | 34978 ft | 411 kts | 243° |
| 2026-05-04 06:44 | 42.80879 | -1.79675 | 34977 ft | 411 kts | 243° |
| 2026-05-04 06:45 | 42.78498 | -1.86741 | 34980 ft | 411 kts | 243° |
| 2026-05-04 06:45 | 42.76115 | -1.93812 | 35008 ft | 411 kts | 243° |
| 2026-05-04 06:46 | 42.73722 | -2.00879 | 34997 ft | 411 kts | 243° |
| 2026-05-04 06:46 | 42.71323 | -2.07941 | 34991 ft | 411 kts | 243° |
| 2026-05-04 06:48 | 42.61712 | -2.36097 | 34978 ft | 412 kts | 243° |
| 2026-05-04 06:50 | 42.52004 | -2.64243 | 34969 ft | 411 kts | 243° |
| 2026-05-04 06:51 | 42.49566 | -2.71259 | 34974 ft | 412 kts | 243° |
| 2026-05-04 06:51 | 42.47122 | -2.78285 | 34967 ft | 413 kts | 243° |
| 2026-05-04 06:52 | 42.44680 | -2.85313 | 34957 ft | 413 kts | 243° |
| 2026-05-04 06:52 | 42.42214 | -2.92344 | 34958 ft | 414 kts | 243° |
| 2026-05-04 06:53 | 42.39743 | -2.99376 | 34961 ft | 414 kts | 243° |
| 2026-05-04 06:53 | 42.37273 | -3.06410 | 34978 ft | 414 kts | 243° |
| 2026-05-04 06:54 | 42.34791 | -3.13449 | 34949 ft | 415 kts | 243° |
| 2026-05-04 06:54 | 42.32304 | -3.20482 | 34960 ft | 415 kts | 242° |
| 2026-05-04 06:55 | 42.29815 | -3.27514 | 34971 ft | 415 kts | 243° |
| 2026-05-04 06:55 | 42.27325 | -3.34541 | 34977 ft | 415 kts | 242° |
| 2026-05-04 06:57 | 42.17281 | -3.62647 | 34967 ft | 417 kts | 243° |
| 2026-05-04 06:58 | 42.14769 | -3.69649 | 34965 ft | 418 kts | 243° |
| 2026-05-04 06:58 | 42.12232 | -3.76694 | 34963 ft | 418 kts | 242° |
| 2026-05-04 06:59 | 42.09688 | -3.83724 | 34992 ft | 418 kts | 243° |
| 2026-05-04 06:59 | 42.07553 | -3.89608 | 34983 ft | 418 kts | 243° |
| 2026-05-04 07:01 | 41.97303 | -4.17733 | 34971 ft | 419 kts | 242° |
| 2026-05-04 07:02 | 41.94730 | -4.24749 | 34972 ft | 419 kts | 242° |
| 2026-05-04 07:02 | 41.92152 | -4.31769 | 34972 ft | 419 kts | 242° |
| 2026-05-04 07:03 | 41.89562 | -4.38778 | 34957 ft | 419 kts | 242° |
| 2026-05-04 07:03 | 41.86979 | -4.45775 | 34973 ft | 418 kts | 242° |
| 2026-05-04 07:04 | 41.84412 | -4.52711 | 34985 ft | 418 kts | 242° |
| 2026-05-04 07:04 | 41.81827 | -4.59686 | 34999 ft | 418 kts | 242° |
| 2026-05-04 07:05 | 41.79235 | -4.66667 | 34981 ft | 419 kts | 242° |
| 2026-05-04 07:05 | 41.76633 | -4.73642 | 34993 ft | 419 kts | 242° |
| 2026-05-04 07:06 | 41.72703 | -4.84115 | 34994 ft | 420 kts | 242° |
| 2026-05-04 07:07 | 41.70086 | -4.91105 | 34994 ft | 420 kts | 242° |
| 2026-05-04 07:09 | 41.59546 | -5.19061 | 34992 ft | 421 kts | 242° |
| 2026-05-04 07:09 | 41.56891 | -5.26023 | 34994 ft | 421 kts | 242° |
| 2026-05-04 07:10 | 41.54233 | -5.32991 | 34998 ft | 421 kts | 242° |
| 2026-05-04 07:12 | 41.43535 | -5.60919 | 35001 ft | 424 kts | 242° |
| 2026-05-04 07:12 | 41.40846 | -5.67900 | 35003 ft | 423 kts | 242° |
| 2026-05-04 07:13 | 41.38159 | -5.74872 | 35016 ft | 423 kts | 243° |
| 2026-05-04 07:13 | 41.35460 | -5.81835 | 35021 ft | 424 kts | 243° |
| 2026-05-04 07:14 | 41.28686 | -5.99258 | 35023 ft | 424 kts | 243° |
| 2026-05-04 07:15 | 41.25969 | -6.06221 | 35030 ft | 424 kts | 242° |
| 2026-05-04 07:15 | 41.23246 | -6.13180 | 35043 ft | 425 kts | 243° |
| 2026-05-04 07:16 | 41.20510 | -6.20148 | 35034 ft | 426 kts | 243° |
| 2026-05-04 07:16 | 41.17740 | -6.27088 | 35040 ft | 426 kts | 239° |
| 2026-05-04 07:17 | 41.14042 | -6.33224 | 35038 ft | 426 kts | 230° |
| 2026-05-04 07:17 | 41.10132 | -6.39131 | 35051 ft | 426 kts | 230° |
| 2026-05-04 07:18 | 41.06233 | -6.45037 | 35053 ft | 426 kts | 230° |
| 2026-05-04 07:18 | 41.02330 | -6.50949 | 35048 ft | 427 kts | 231° |
| 2026-05-04 07:19 | 40.98434 | -6.56827 | 35053 ft | 428 kts | 230° |
| 2026-05-04 07:19 | 40.94497 | -6.62747 | 35045 ft | 429 kts | 230° |
| 2026-05-04 07:20 | 40.90563 | -6.68652 | 35048 ft | 428 kts | 231° |
| 2026-05-04 07:20 | 40.86636 | -6.74554 | 35073 ft | 427 kts | 231° |
| 2026-05-04 07:22 | 40.70877 | -6.98070 | 35079 ft | 429 kts | 231° |
| 2026-05-04 07:23 | 40.66918 | -7.03947 | 35074 ft | 428 kts | 231° |
| 2026-05-04 07:23 | 40.62959 | -7.09812 | 35089 ft | 428 kts | 231° |
| 2026-05-04 07:24 | 40.59006 | -7.15659 | 35092 ft | 428 kts | 231° |
| 2026-05-04 07:24 | 40.55047 | -7.21499 | 35097 ft | 427 kts | 231° |
| 2026-05-04 07:26 | 40.39193 | -7.44783 | 35087 ft | 428 kts | 231° |
| 2026-05-04 07:27 | 40.35219 | -7.50603 | 35085 ft | 428 kts | 231° |
| 2026-05-04 07:27 | 40.31240 | -7.56402 | 35087 ft | 428 kts | 231° |
| 2026-05-04 07:28 | 40.27252 | -7.62210 | 35082 ft | 429 kts | 231° |
| 2026-05-04 07:28 | 40.23251 | -7.68028 | 35074 ft | 430 kts | 231° |
| 2026-05-04 07:29 | 40.19241 | -7.73850 | 35053 ft | 431 kts | 231° |
| 2026-05-04 07:29 | 40.15224 | -7.79659 | 35061 ft | 431 kts | 231° |
| 2026-05-04 07:30 | 40.11204 | -7.85466 | 35080 ft | 431 kts | 231° |
| 2026-05-04 07:30 | 40.07185 | -7.91268 | 35093 ft | 431 kts | 231° |
| 2026-05-04 07:31 | 40.03167 | -7.97055 | 35090 ft | 430 kts | 231° |
| 2026-05-04 07:33 | 39.87104 | -8.20069 | 35091 ft | 427 kts | 231° |
| 2026-05-04 07:33 | 39.83103 | -8.25788 | 35093 ft | 427 kts | 231° |
| 2026-05-04 07:34 | 39.79099 | -8.31498 | 35096 ft | 427 kts | 231° |
| 2026-05-04 07:34 | 39.75087 | -8.37187 | 35088 ft | 428 kts | 231° |
| 2026-05-04 07:35 | 39.71071 | -8.42890 | 35075 ft | 428 kts | 231° |
| 2026-05-04 07:35 | 39.67052 | -8.48585 | 35085 ft | 428 kts | 231° |
| 2026-05-04 07:36 | 39.63047 | -8.54297 | 35095 ft | 428 kts | 231° |
| 2026-05-04 07:38 | 39.47094 | -8.77225 | 35083 ft | 428 kts | 232° |
| 2026-05-04 07:38 | 39.43106 | -8.82924 | 35109 ft | 427 kts | 232° |
| 2026-05-04 07:39 | 39.39113 | -8.88616 | 35114 ft | 427 kts | 232° |
| 2026-05-04 07:39 | 39.35140 | -8.94256 | 35122 ft | 427 kts | 232° |
| 2026-05-04 07:40 | 39.31146 | -8.99932 | 35122 ft | 427 kts | 232° |
| 2026-05-04 07:40 | 39.27152 | -9.05602 | 35121 ft | 427 kts | 232° |
| 2026-05-04 07:41 | 39.23149 | -9.11257 | 35105 ft | 427 kts | 232° |
| 2026-05-04 07:41 | 39.19153 | -9.16904 | 35108 ft | 425 kts | 232° |
| 2026-05-04 07:42 | 39.15173 | -9.22517 | 35123 ft | 424 kts | 232° |
| 2026-05-04 07:42 | 39.11193 | -9.28111 | 35125 ft | 423 kts | 232° |
| 2026-05-04 07:43 | 39.07217 | -9.33688 | 35118 ft | 422 kts | 232° |
| 2026-05-04 07:43 | 39.03247 | -9.39256 | 35128 ft | 422 kts | 232° |
| 2026-05-04 07:44 | 38.99282 | -9.44815 | 35128 ft | 422 kts | 232° |
| 2026-05-04 07:44 | 38.95312 | -9.50368 | 35086 ft | 422 kts | 233° |
| 2026-05-04 07:45 | 38.91346 | -9.55911 | 35109 ft | 421 kts | 232° |
| 2026-05-04 07:45 | 38.87380 | -9.61432 | 35119 ft | 421 kts | 232° |
| 2026-05-04 07:46 | 38.84076 | -9.66017 | 35121 ft | 421 kts | 232° |
| 2026-05-04 07:46 | 38.80102 | -9.71517 | 35122 ft | 420 kts | 232° |
| 2026-05-04 07:47 | 38.76134 | -9.77013 | 35125 ft | 420 kts | 232° |
| 2026-05-04 07:49 | 38.60232 | -9.98948 | 35105 ft | 420 kts | 232° |
| 2026-05-04 07:49 | 38.56247 | -10.04417 | 35109 ft | 420 kts | 232° |
| 2026-05-04 07:50 | 38.52258 | -10.09883 | 35111 ft | 421 kts | 232° |
| 2026-05-04 07:50 | 38.48293 | -10.15318 | 35121 ft | 421 kts | 232° |
| 2026-05-04 07:51 | 38.44292 | -10.20782 | 35071 ft | 421 kts | 232° |
| 2026-05-04 07:51 | 38.40286 | -10.26247 | 35111 ft | 423 kts | 232° |
| 2026-05-04 07:52 | 38.36266 | -10.31727 | 35129 ft | 423 kts | 232° |
| 2026-05-04 07:52 | 38.32242 | -10.37200 | 35135 ft | 423 kts | 232° |
| 2026-05-04 07:54 | 38.16113 | -10.58987 | 35445 ft | 422 kts | 231° |
| 2026-05-04 07:55 | 38.12101 | -10.64412 | 35592 ft | 422 kts | 231° |
| 2026-05-04 07:55 | 38.08071 | -10.69826 | 35742 ft | 422 kts | 231° |
| 2026-05-04 07:56 | 38.04039 | -10.75236 | 35889 ft | 422 kts | 231° |
| 2026-05-04 07:56 | 38.00008 | -10.80647 | 36040 ft | 422 kts | 231° |
| 2026-05-04 07:57 | 37.95975 | -10.86051 | 36184 ft | 422 kts | 231° |
| 2026-05-04 07:57 | 37.91936 | -10.91447 | 36326 ft | 422 kts | 231° |
| 2026-05-04 07:58 | 37.87891 | -10.96834 | 36486 ft | 423 kts | 231° |
| 2026-05-04 07:58 | 37.83835 | -11.02238 | 36642 ft | 424 kts | 231° |
| 2026-05-04 07:59 | 37.79772 | -11.07630 | 36803 ft | 424 kts | 231° |
| 2026-05-04 07:59 | 37.75703 | -11.13027 | 36954 ft | 424 kts | 231° |
| 2026-05-04 08:00 | 37.73700 | -11.15683 | 37106 ft | 422 kts | 231° |
| 2026-05-04 08:00 | 37.71673 | -11.18376 | 37155 ft | 423 kts | 231° |
| 2026-05-04 08:02 | 37.55429 | -11.39790 | 37151 ft | 421 kts | 231° |
| 2026-05-04 08:02 | 37.51364 | -11.45116 | 37156 ft | 422 kts | 231° |
| 2026-05-04 08:03 | 37.47305 | -11.50450 | 37159 ft | 422 kts | 231° |
| 2026-05-04 08:03 | 37.43239 | -11.55780 | 37163 ft | 422 kts | 231° |
| 2026-05-04 08:04 | 37.39160 | -11.61100 | 37170 ft | 423 kts | 231° |
| 2026-05-04 08:04 | 37.35081 | -11.66418 | 37158 ft | 422 kts | 231° |
| 2026-05-04 08:05 | 37.31008 | -11.71725 | 37177 ft | 421 kts | 231° |
| 2026-05-04 08:05 | 37.26935 | -11.77019 | 37181 ft | 421 kts | 231° |
| 2026-05-04 08:06 | 37.22870 | -11.82305 | 37185 ft | 421 kts | 231° |
| 2026-05-04 08:06 | 37.18792 | -11.87582 | 37185 ft | 421 kts | 231° |
| 2026-05-04 08:08 | 37.02501 | -12.08595 | 37180 ft | 419 kts | 231° |
| 2026-05-04 08:11 | 36.84231 | -12.32012 | 37181 ft | 418 kts | 231° |
| 2026-05-04 08:11 | 36.78132 | -12.39787 | 37168 ft | 417 kts | 231° |
| 2026-05-04 08:12 | 36.74072 | -12.44958 | 37169 ft | 417 kts | 231° |
| 2026-05-04 08:12 | 36.70007 | -12.50121 | 37186 ft | 417 kts | 231° |
| 2026-05-04 08:13 | 36.65944 | -12.55271 | 37186 ft | 417 kts | 231° |
| 2026-05-04 08:13 | 36.61875 | -12.60429 | 37187 ft | 418 kts | 231° |
| 2026-05-04 08:14 | 36.57805 | -12.65589 | 37194 ft | 418 kts | 231° |
| 2026-05-04 08:16 | 36.41497 | -12.86117 | 37192 ft | 416 kts | 231° |
| 2026-05-04 08:16 | 36.37431 | -12.91228 | 37192 ft | 416 kts | 231° |
| 2026-05-04 08:17 | 36.33369 | -12.96328 | 37191 ft | 416 kts | 231° |
| 2026-05-04 08:17 | 36.29227 | -13.01354 | 37191 ft | 417 kts | 229° |
| 2026-05-04 08:19 | 36.12344 | -13.20954 | 37203 ft | 415 kts | 229° |
| 2026-05-04 08:20 | 36.08175 | -13.25818 | 37197 ft | 415 kts | 229° |
| 2026-05-04 08:20 | 36.03973 | -13.30696 | 37207 ft | 415 kts | 229° |
| 2026-05-04 08:21 | 35.99768 | -13.35577 | 37199 ft | 415 kts | 229° |
| 2026-05-04 08:21 | 35.95566 | -13.40450 | 37198 ft | 414 kts | 229° |
| 2026-05-04 08:22 | 35.91359 | -13.45306 | 37204 ft | 414 kts | 229° |
| 2026-05-04 08:24 | 35.74551 | -13.64664 | 37200 ft | 414 kts | 229° |
| 2026-05-04 08:24 | 35.70345 | -13.69498 | 37177 ft | 414 kts | 229° |
| 2026-05-04 08:25 | 35.66137 | -13.74324 | 37187 ft | 413 kts | 229° |
| 2026-05-04 08:25 | 35.61927 | -13.79143 | 37191 ft | 413 kts | 229° |
| 2026-05-04 08:27 | 35.45032 | -13.98400 | 37194 ft | 415 kts | 229° |
| 2026-05-04 08:28 | 35.40798 | -14.03203 | 37175 ft | 415 kts | 228° |
| 2026-05-04 08:28 | 35.36566 | -14.08013 | 37184 ft | 415 kts | 228° |
| 2026-05-04 08:29 | 35.32334 | -14.12817 | 37189 ft | 415 kts | 228° |
| 2026-05-04 08:31 | 35.15342 | -14.31989 | 37192 ft | 416 kts | 228° |
| 2026-05-04 08:33 | 34.98309 | -14.51091 | 37206 ft | 417 kts | 227° |
| 2026-05-04 08:35 | 34.81909 | -14.69384 | 37175 ft | 416 kts | 227° |
| 2026-05-04 08:35 | 34.77635 | -14.74130 | 37185 ft | 416 kts | 227° |
| 2026-05-04 08:37 | 34.62666 | -14.90683 | 37187 ft | 415 kts | 227° |
| 2026-05-04 08:38 | 34.58423 | -14.95367 | 37173 ft | 415 kts | 227° |
| 2026-05-04 08:38 | 34.54153 | -15.00087 | 37178 ft | 415 kts | 227° |
| 2026-05-04 08:40 | 34.37057 | -15.18871 | 37182 ft | 415 kts | 227° |
| 2026-05-04 08:41 | 34.32777 | -15.23554 | 37183 ft | 415 kts | 226° |
| 2026-05-04 08:41 | 34.28501 | -15.28230 | 37187 ft | 415 kts | 226° |
| 2026-05-04 08:42 | 34.24219 | -15.32899 | 37164 ft | 414 kts | 226° |
| 2026-05-04 08:42 | 34.19936 | -15.37555 | 37177 ft | 414 kts | 226° |
| 2026-05-04 08:43 | 34.15656 | -15.42204 | 37171 ft | 413 kts | 226° |
| 2026-05-04 08:43 | 34.11388 | -15.46855 | 37174 ft | 413 kts | 226° |
| 2026-05-04 08:44 | 34.07114 | -15.51499 | 37034 ft | 414 kts | 226° |
| 2026-05-04 08:44 | 34.04970 | -15.53827 | 36365 ft | 414 kts | 226° |
| 2026-05-04 08:46 | 33.89733 | -15.70280 | 31035 ft | 430 kts | 227° |
| 2026-05-04 08:46 | 33.87503 | -15.72686 | 30311 ft | 431 kts | 226° |
| 2026-05-04 08:46 | 33.85260 | -15.75100 | 29495 ft | 434 kts | 226° |
| 2026-05-04 08:46 | 33.83003 | -15.77530 | 28681 ft | 437 kts | 226° |
| 2026-05-04 08:47 | 33.80729 | -15.79978 | 27882 ft | 441 kts | 226° |
| 2026-05-04 08:47 | 33.78436 | -15.82446 | 27103 ft | 444 kts | 226° |
| 2026-05-04 08:47 | 33.76124 | -15.84932 | 26332 ft | 448 kts | 225° |
| 2026-05-04 08:47 | 33.73791 | -15.87433 | 25579 ft | 450 kts | 225° |
| 2026-05-04 08:48 | 33.71459 | -15.89925 | 24849 ft | 447 kts | 225° |
| 2026-05-04 08:48 | 33.69142 | -15.92400 | 24126 ft | 444 kts | 225° |
| 2026-05-04 08:48 | 33.66819 | -15.94803 | 23399 ft | 441 kts | 221° |
| 2026-05-04 08:48 | 33.64294 | -15.96859 | 22552 ft | 437 kts | 216° |
| 2026-05-04 08:49 | 33.61747 | -15.98820 | 21717 ft | 433 kts | 216° |
| 2026-05-04 08:50 | 33.46705 | -16.10317 | 18468 ft | 422 kts | 215° |
| 2026-05-04 08:50 | 33.44237 | -16.12201 | 17893 ft | 419 kts | 215° |
| 2026-05-04 08:51 | 33.41786 | -16.14073 | 17329 ft | 417 kts | 215° |
| 2026-05-04 08:51 | 33.39351 | -16.15932 | 16745 ft | 413 kts | 215° |
| 2026-05-04 08:51 | 33.36935 | -16.17774 | 16195 ft | 410 kts | 215° |
| 2026-05-04 08:51 | 33.34536 | -16.19601 | 15646 ft | 407 kts | 215° |
| 2026-05-04 08:52 | 33.32120 | -16.21439 | 15108 ft | 405 kts | 215° |
| 2026-05-04 08:52 | 33.29789 | -16.23215 | 14591 ft | 402 kts | 214° |
| 2026-05-04 08:52 | 33.27434 | -16.25005 | 14076 ft | 400 kts | 214° |
| 2026-05-04 08:52 | 33.25092 | -16.26783 | 13518 ft | 398 kts | 214° |
| 2026-05-04 08:53 | 33.22766 | -16.28548 | 12939 ft | 395 kts | 214° |
| 2026-05-04 08:54 | 33.07363 | -16.40223 | 10101 ft | 319 kts | 213° |
| 2026-05-04 08:55 | 33.05567 | -16.41576 | 10106 ft | 294 kts | 214° |
| 2026-05-04 08:55 | 33.03850 | -16.42872 | 9703 ft | 290 kts | 214° |
| 2026-05-04 08:55 | 33.02163 | -16.44147 | 9083 ft | 284 kts | 213° |
| 2026-05-04 08:55 | 33.00506 | -16.45401 | 8473 ft | 280 kts | 213° |
| 2026-05-04 08:57 | 32.89657 | -16.54596 | 4740 ft | 257 kts | 222° |
| 2026-05-04 09:01 | 32.73316 | -16.69148 | 1838 ft | 183 kts | 217° |
| 2026-05-04 09:01 | 32.72308 | -16.70044 | 1617 ft | 178 kts | 217° |
| 2026-05-04 09:01 | 32.71317 | -16.70900 | 1440 ft | 175 kts | 216° |
| 2026-05-04 09:01 | 32.70333 | -16.71735 | 1348 ft | 173 kts | 216° |
| 2026-05-04 09:02 | 32.69353 | -16.72562 | 1304 ft | 173 kts | 216° |
| 2026-05-04 09:02 | 32.68377 | -16.73399 | 1284 ft | 173 kts | 215° |
| 2026-05-04 09:02 | 32.67396 | -16.74226 | 1309 ft | 173 kts | 216° |
| 2026-05-04 09:02 | 32.66430 | -16.75046 | 1341 ft | 173 kts | 216° |
| 2026-05-04 09:03 | 32.65462 | -16.75882 | 1305 ft | 169 kts | 216° |
| 2026-05-04 09:03 | 32.64550 | -16.76739 | 1380 ft | 161 kts | 225° |
| 2026-05-04 09:03 | 32.64025 | -16.77860 | 1314 ft | 151 kts | 258° |
| 2026-05-04 09:03 | 32.64159 | -16.79017 | 1051 ft | 145 kts | 301° |
| 2026-05-04 09:04 | 32.64956 | -16.79742 | 868 ft | 146 kts | 338° |
| 2026-05-04 09:04 | 32.65910 | -16.80086 | 799 ft | 146 kts | 349° |
| 2026-05-04 09:04 | 32.66939 | -16.80105 | 646 ft | 151 kts | 11° |
| 2026-05-04 09:04 | 32.67890 | -16.79645 | 507 ft | 147 kts | 37° |
| 2026-05-04 09:05 | 32.68620 | -16.78812 | 316 ft | 143 kts | 45° |
| 2026-05-04 09:05 | 32.69304 | -16.78010 | 181 ft | 129 kts | 45° |
| 2026-05-04 09:05 | 32.69807 | -16.77425 | 176 ft | 69 kts | 44° |
| 2026-05-04 09:05 | 32.69997 | -16.77203 | 176 ft | 7 kts | 45° |
| 2026-05-04 09:06 | 32.70001 | -16.77187 | 176 ft | 3 kts | 100° |
| 2026-05-04 09:07 | 32.69622 | -16.77446 | 176 ft | 13 kts | 226° |
| 2026-05-04 09:08 | 32.69574 | -16.77498 | 176 ft | 6 kts | 192° |
| 2026-05-04 09:08 | 32.69545 | -16.77473 | 176 ft | 5 kts | 139° |
| 2026-05-04 09:08 | 32.69519 | -16.77446 | 176 ft | 3 kts | 137° |
| 2026-05-04 09:08 | 32.69514 | -16.77441 | 176 ft | 0 kts | 138° |